AirNav   Duncan Aviation - Near you to keep you 
flying
 
 1517 users online  

3M8 North Pickens Airport
Reform, Alabama, USA

GOING TO REFORM?


FAA INFORMATION EFFECTIVE 15 JULY 2021

Location

FAA Identifier: 3M8
Lat/Long: 33-23-12.3100N 088-00-23.6850W
33-23.205167N 088-00.394750W
33.3867528,-88.0065792
(estimated)
Elevation: 236.8 ft. / 72 m (estimated)
Variation: 01W (2000)
From city: 1 mile N of REFORM, AL
Time zone: UTC -5 (UTC -6 during Standard Time)
Zip code: 35481

Airport Operations

Airport use: Open to the public
Activation date: 07/1970
Control tower: no
ARTCC: MEMPHIS CENTER
FSS: ANNISTON FLIGHT SERVICE STATION
NOTAMs facility: ANB (NOTAM-D service available)
Attendance: UNATNDD
Wind indicator: lighted
Segmented circle: no
Lights: ACTVT REILS RWY 01 & 19; TRCV RWY 01 & 19; MIRL RWY 01/19 - CTAF.
Beacon: white-green (lighted land airport)
BEACON OTS. Operates sunset to sunrise.

Airport Communications

CTAF: 122.9
COLUMBUS APPROACH: 135.6
COLUMBUS DEPARTURE: 135.6
  • APCH/DEP SVC PRVDD BY MEMPHIS ARTCC ON FREQS 127.1/269.4 (COLUMBUS RCAG) WHEN COLUMBUS APCH CTL CLSD.

Nearby radio navigation aids

VOR radial/distance  VOR name  Freq  Var
LDKr285/24.8CRIMSON VORTAC117.8003E
IGBr099/26.1BIGBEE VORTAC116.2004E
CBMr125/26.5CALEDONIA VORTAC115.2000E
OKWr283/39.0BROOKWOOD VORTAC111.0000E

Airport Services

Fuel available: 100LL
100LL:100LL SELF-SERVE 24/7
Parking: tiedowns
Airframe service: NONE
Powerplant service: NONE
Bottled oxygen: NONE
Bulk oxygen: NONE

Runway Information

Runway 1/19

Dimensions: 5144 x 80 ft. / 1568 x 24 m
Surface: asphalt, in fair condition
Runway edge lights: medium intensity
RUNWAY 1  RUNWAY 19
Latitude: 33-22.783833N33-23.626500N
Longitude: 088-00.452333W088-00.337167W
Elevation: 230.4 ft.236.8 ft.
Traffic pattern: rightleft
Runway heading: 008 magnetic, 007 true188 magnetic, 187 true
Displaced threshold: 138 ft.
5006 FT AVBL FOR NIGHT OPNS.
no
Markings: nonprecision, in fair conditionnonprecision, in fair condition
Visual slope indicator: tri-color VASI on left (6.00 degrees glide path)tri-color VASI on left (5.00 degrees glide path)
OTS.
Runway end identifier lights: yesyes
Touchdown point: yes, no lightsyes, no lights
Obstructions: 95 ft. trees, 1623 ft. from runway, 96 ft. left of centerline, 14:1 slope to clear98 ft. tree, 1590 ft. from runway, 156 ft. left of centerline, 14:1 slope to clear

Airport Ownership and Management from official FAA records

Ownership: Publicly-owned
Owner: PICKENS CO CMSN
20 PHOENIX AVE
CARROLLTON, AL 35447
Phone 205-367-2020
Manager: WILLIAM H. LANG
8141 HWY 86
CARROLLTON, AL 35447
Phone (205) 367-8821
MGR CELL: 205-463-6351

Airport Operational Statistics

Aircraft based on the field: 14
Single engine airplanes: 13
Jet airplanes: 1
    
Aircraft operations: avg 66/week *
74% transient general aviation
26% local general aviation
* for 12-month period ending 01 October 2019

Additional Remarks

FOR CD CTC MEMPHIS ARTCC AT 901-368-8453/8449.

Instrument Procedures

NOTE: All procedures below are presented as PDF files. If you need a reader for these files, you should download the free Adobe Reader.

NOT FOR NAVIGATION. Please procure official charts for flight.
FAA instrument procedures published for use from 15 July 2021 at 0901Z to 12 August 2021 at 0900z.

 
IAPs - Instrument Approach Procedures
RNAV (GPS) RWY 01 **CHANGED**   download (208KB)
RNAV (GPS) RWY 19 **CHANGED**   download (233KB)
NOTE: Special Take-Off Minimums/Departure Procedures apply   download (189KB)

Other nearby airports with instrument procedures:

KUBS - Columbus-Lowndes County Airport (19 nm W)
KAIV - George Downer Airport (19 nm SW)
M95 - Richard Arthur Field Airport (22 nm NE)
KTCL - Tuscaloosa National Airport (22 nm SE)
KCBM - Columbus Air Force Base (27 nm NW)
 
Loc | Ops | Rwys | IFR | FBO | Links
Com | Nav | Svcs | Stats | Notes
Area around 3M8 (North Pickens Airport)
 
Road maps at: MapQuest Bing Google
 
Aerial photo
WARNING: Photo may not be current or correct
Aerial photo of 3M8 (North Pickens Airport)
Do you have a better or more recent aerial photo of North Pickens Airport that you would like to share? If so, please send us your photo.

 
Sectional chart

 
Airport distance calculator
Flying to North Pickens Airport? Find the distance to fly.

From to 3M8

Sunrise and sunset
Times for 28-Jul-2021
 Local
(UTC-5)
 Zulu
(UTC)
Morning civil twilight05:3510:35
Sunrise06:0311:03
Sunset19:5400:54
Evening civil twilight20:2201:22

Current date and time
Zulu (UTC)  28-Jul-2021 15:27:02
Local (UTC-5)  28-Jul-2021 10:27:02
 
METAR
KTCL 
22nm SE 
281453Z 00000KT 10SM CLR 28/25 A3006 RMK AO2 SLP176 T02830250 50002
KCBM 
27nm NW 
281456Z AUTO 00000KT 10SM CLR 30/25 A3004 RMK AO2 SLP173 T02960251 50006 $
KGTR 
28nm W 
281456Z 35004KT 10SM FEW011 30/27 A3007 RMK AO2 SLP186 T03000272 50004
KM40 
38nm NW 
281515Z AUTO 00000KT 10SM CLR 31/27 A3007 RMK AO2
KSTF 
42nm W 
280955Z AUTO 00000KT 10SM FEW041 BKN050 24/24 A3001 RMK AO2 LTG DSNT SE AND S
TAF
KTCL 
22nm SE 
281133Z 2812/2912 00000KT P6SM FEW050 FEW200
KCBM 
27nm NW 
280900Z 2809/2915 VRB03KT 9999 SCT040 QNH2996INS BECMG 2815/2816 02009KT 9999 SKC QNH2994INS BECMG 2822/2823 VRB03KT 9999 SKC QNH2994INS TX36/2819Z TN24/2809Z
NOTAMs
Click for the latest NOTAMs
NOTAMs are issued by the DoD/FAA and will open in a separate window not controlled by AirNav.

 

 
 

FBO, Fuel Providers, and Aircraft Ground Support

  
 Business Name 
 
 Contact 
 
 Services / Description 
 
Fuel Prices
 
Comments
  
Peco 205-399-0357
no information available

If you are affiliated with Peco and would like to show here your services, contact info, web link, logo, and more, click here
100LL
SS $4.50 
 Updated 16-Apr-2019
 
   write
SS=Self service
Update Fuel Prices
 

Would you like to see your business listed on this page?

 If your business provides an interesting product or service to pilots, flight crews, aircraft, or users of the North Pickens Airport, you should consider listing it here.  To start the listing process, click on the button below
 
Add a business
 

Other Pages about North Pickens Airport

Update a link
 
Copyright © AirNav, LLC. All rights reserved. Privacy Policy  Contact